Time;durP1;ratioP1;P1;durP2;ratioP2;P2;SDS_P1;SDS_P2;PMS_P1;PMS_P2;Temp;Humidity;BMP_temperature;BMP_pressure;BME280_temperature;BME280_humidity;BME280_pressure;Samples;Min_cycle;Max_cycle;Signal;HPM_P1;HPM_P2
2023/07/16 00:02:15;;;;;;;2.43;2.23;;;;;;;;;;5071496;28;20208;-58
2023/07/16 00:04:41;;;;;;;2.93;2.17;;;;;;;;;;5070697;28;20196;-58
2023/07/16 00:07:07;;;;;;;2.80;2.40;;;;;;;;;;5070988;28;20177;-57
2023/07/16 00:09:34;;;;;;;2.27;2.10;;;;;;;;;;5071403;28;20261;-58
2023/07/16 00:12:00;;;;;;;2.80;2.60;;;;;;;;;;5071451;28;20176;-58
2023/07/16 00:14:26;;;;;;;2.83;2.20;;;;;;;;;;5053370;28;20571;-58
2023/07/16 00:16:52;;;;;;;2.50;2.10;;;;;;;;;;5070970;28;20183;-58
2023/07/16 00:19:19;;;;;;;3.47;2.47;;;;;;;;;;5070564;28;20171;-59
2023/07/16 00:21:45;;;;;;;2.20;2.00;;;;;;;;;;5052508;28;20179;-59
2023/07/16 00:24:11;;;;;;;2.60;2.40;;;;;;;;;;5071334;28;20169;-59
2023/07/16 00:26:38;;;;;;;2.40;2.20;;;;;;;;;;5071167;28;20185;-58
2023/07/16 00:29:04;;;;;;;2.30;2.10;;;;;;;;;;5070940;28;20193;-58
2023/07/16 00:31:30;;;;;;;2.63;2.43;;;;;;;;;;5071218;28;20584;-58
2023/07/16 00:33:56;;;;;;;2.60;2.30;;;;;;;;;;5070155;28;20244;-59
2023/07/16 00:36:22;;;;;;;2.50;2.30;;;;;;;;;;5070239;28;20168;-58
2023/07/16 00:38:50;;;;;;;2.53;2.33;;;;;;;;;;5070543;28;20517;-58
2023/07/16 00:41:16;;;;;;;3.33;2.30;;;;;;;;;;5070465;28;20172;-58
2023/07/16 00:43:42;;;;;;;2.50;2.10;;;;;;;;;;5070678;28;20173;-58
2023/07/16 00:46:09;;;;;;;3.67;2.53;;;;;;;;;;5070638;28;20212;-58
2023/07/16 00:48:35;;;;;;;2.63;2.27;;;;;;;;;;5069866;28;20646;-58
2023/07/16 00:51:03;;;;;;;2.40;2.20;;;;;;;;;;5070255;28;20173;-57
2023/07/16 00:53:30;;;;;;;2.63;2.43;;;;;;;;;;5070247;28;20268;-58
2023/07/16 00:55:56;;;;;;;2.77;2.10;;;;;;;;;;5070412;28;20249;-58
2023/07/16 00:58:22;;;;;;;4.83;2.53;;;;;;;;;;5070184;28;20302;-58
2023/07/16 01:00:49;;;;;;;2.60;2.40;;;;;;;;;;5070601;28;20178;-58
2023/07/16 01:03:15;;;;;;;2.70;2.50;;;;;;;;;;5069410;28;20170;-58
2023/07/16 01:05:48;;;;;;;2.87;2.40;;;;;;;;;;5054955;28;20207;-58
2023/07/16 01:08:18;;;;;;;2.47;2.30;;;;;;;;;;5049880;28;20216;-58
2023/07/16 01:10:44;;;;;;;2.90;2.60;;;;;;;;;;5050341;28;20187;-57
2023/07/16 01:13:11;;;;;;;2.50;2.27;;;;;;;;;;5049939;28;20164;-58
2023/07/16 01:15:37;;;;;;;2.80;2.60;;;;;;;;;;5050501;28;20179;-57
2023/07/16 01:18:04;;;;;;;2.60;2.40;;;;;;;;;;5049663;28;20673;-58
2023/07/16 01:20:31;;;;;;;2.87;2.37;;;;;;;;;;5049544;28;20179;-57
2023/07/16 01:23:27;;;;;;;3.30;2.13;;;;;;;;;;5050249;28;20652;-58
2023/07/16 01:26:03;;;;;;;2.97;2.70;;;;;;;;;;5049994;28;20206;-58
2023/07/16 01:28:41;;;;;;;2.60;2.40;;;;;;;;;;5048217;28;20290;-58
2023/07/16 01:31:08;;;;;;;4.13;2.40;;;;;;;;;;5049833;28;20171;-58
2023/07/16 01:33:35;;;;;;;2.50;2.30;;;;;;;;;;5048897;28;20212;-58
2023/07/16 01:36:01;;;;;;;2.50;2.30;;;;;;;;;;5049622;28;20617;-57
2023/07/16 01:38:27;;;;;;;3.33;2.43;;;;;;;;;;5049359;28;20621;-57
2023/07/16 01:40:54;;;;;;;2.60;2.40;;;;;;;;;;5049629;28;20629;-58
2023/07/16 01:43:20;;;;;;;3.23;3.03;;;;;;;;;;5048160;28;20185;-57
2023/07/16 01:45:46;;;;;;;3.30;2.40;;;;;;;;;;5050033;28;20506;-57
2023/07/16 01:48:12;;;;;;;2.90;2.30;;;;;;;;;;5048602;28;20197;-58
2023/07/16 01:50:39;;;;;;;3.77;2.17;;;;;;;;;;5053398;28;20680;-57
2023/07/16 01:53:05;;;;;;;2.40;1.97;;;;;;;;;;5069610;28;20180;-57
2023/07/16 01:55:31;;;;;;;4.20;2.20;;;;;;;;;;5069790;28;20660;-58
2023/07/16 01:57:57;;;;;;;2.37;2.17;;;;;;;;;;5069186;28;20232;-57
2023/07/16 02:00:24;;;;;;;2.57;2.37;;;;;;;;;;5069010;28;20191;-57
2023/07/16 02:02:50;;;;;;;3.63;2.37;;;;;;;;;;5069260;28;20202;-58
2023/07/16 02:05:17;;;;;;;2.00;1.90;;;;;;;;;;5068038;28;20660;-57
2023/07/16 02:07:43;;;;;;;4.97;2.60;;;;;;;;;;5051304;28;20735;-56
2023/07/16 02:10:09;;;;;;;3.47;2.13;;;;;;;;;;5069064;28;20279;-56
2023/07/16 02:12:35;;;;;;;3.33;2.60;;;;;;;;;;5069429;28;20187;-56
2023/07/16 02:15:02;;;;;;;3.43;2.30;;;;;;;;;;5069309;28;20194;-56
2023/07/16 02:17:28;;;;;;;2.43;2.20;;;;;;;;;;5069282;28;20199;-56
2023/07/16 02:19:54;;;;;;;5.87;2.60;;;;;;;;;;5068392;28;20642;-58
2023/07/16 02:22:20;;;;;;;3.00;2.80;;;;;;;;;;5069413;28;20675;-56
2023/07/16 02:24:46;;;;;;;2.40;2.20;;;;;;;;;;5069310;28;20169;-57
2023/07/16 02:27:12;;;;;;;2.80;2.47;;;;;;;;;;5069659;28;20604;-56
2023/07/16 02:29:38;;;;;;;3.03;2.27;;;;;;;;;;5069222;28;20208;-55
2023/07/16 02:32:04;;;;;;;4.37;2.57;;;;;;;;;;5069168;28;20612;-56
2023/07/16 02:34:30;;;;;;;3.27;2.33;;;;;;;;;;5068678;28;20195;-56
2023/07/16 02:36:56;;;;;;;3.13;2.50;;;;;;;;;;5068879;28;20161;-56
2023/07/16 02:39:22;;;;;;;2.93;2.40;;;;;;;;;;5069289;28;20165;-57
2023/07/16 02:41:48;;;;;;;4.47;2.50;;;;;;;;;;5069580;28;20204;-57
2023/07/16 02:44:14;;;;;;;2.70;2.50;;;;;;;;;;5068858;28;20196;-56
2023/07/16 02:46:41;;;;;;;3.13;2.40;;;;;;;;;;5069291;28;20575;-56
2023/07/16 02:49:07;;;;;;;2.50;2.30;;;;;;;;;;5068177;28;20212;-57
2023/07/16 02:51:33;;;;;;;2.77;2.57;;;;;;;;;;5068762;28;20527;-56
2023/07/16 02:53:59;;;;;;;3.30;2.43;;;;;;;;;;5068767;28;20675;-56
2023/07/16 02:56:25;;;;;;;2.53;2.33;;;;;;;;;;5069146;28;20176;-56
2023/07/16 02:58:51;;;;;;;3.53;2.20;;;;;;;;;;5068656;28;20248;-55
2023/07/16 03:01:18;;;;;;;4.20;3.80;;;;;;;;;;5068719;28;20189;-57
2023/07/16 03:03:44;;;;;;;2.57;2.37;;;;;;;;;;5068124;28;20157;-57
2023/07/16 03:06:10;;;;;;;3.03;2.53;;;;;;;;;;5068511;28;20530;-56
2023/07/16 03:08:36;;;;;;;3.83;2.20;;;;;;;;;;5068528;28;20211;-56
2023/07/16 03:11:02;;;;;;;2.73;2.53;;;;;;;;;;5069260;28;20165;-56
2023/07/16 03:13:28;;;;;;;5.67;2.47;;;;;;;;;;5070286;28;20263;-57
2023/07/16 03:15:54;;;;;;;5.07;2.60;;;;;;;;;;5072140;28;20231;-57
2023/07/16 03:18:21;;;;;;;4.23;3.87;;;;;;;;;;5071264;28;20486;-56
2023/07/16 03:20:47;;;;;;;2.70;2.47;;;;;;;;;;5072118;28;20479;-56
2023/07/16 03:23:13;;;;;;;3.27;2.37;;;;;;;;;;5072239;28;20180;-56
2023/07/16 03:25:39;;;;;;;2.67;2.47;;;;;;;;;;5072904;28;20168;-56
2023/07/16 03:28:05;;;;;;;2.50;2.30;;;;;;;;;;5072102;28;20200;-57
2023/07/16 03:30:32;;;;;;;3.77;3.07;;;;;;;;;;5072236;28;20210;-55
2023/07/16 03:32:59;;;;;;;4.53;2.70;;;;;;;;;;5071546;28;20211;-58
2023/07/16 03:35:25;;;;;;;3.00;2.33;;;;;;;;;;5069846;28;20521;-56
2023/07/16 03:37:51;;;;;;;2.57;2.37;;;;;;;;;;5071671;28;20172;-56
2023/07/16 03:40:19;;;;;;;3.77;3.40;;;;;;;;;;5071979;28;20180;-57
2023/07/16 03:42:45;;;;;;;4.73;2.70;;;;;;;;;;5072412;28;20515;-57
2023/07/16 03:45:11;;;;;;;4.23;2.63;;;;;;;;;;5071873;28;20171;-57
2023/07/16 03:47:37;;;;;;;2.97;2.60;;;;;;;;;;5071889;28;20202;-56
2023/07/16 03:50:04;;;;;;;4.10;2.43;;;;;;;;;;5070641;28;20667;-57
2023/07/16 03:52:30;;;;;;;3.03;2.27;;;;;;;;;;5053738;28;20657;-56
2023/07/16 03:54:56;;;;;;;2.40;2.20;;;;;;;;;;5071427;28;20194;-55
2023/07/16 03:57:22;;;;;;;2.53;2.20;;;;;;;;;;5071633;28;20222;-57
2023/07/16 03:59:48;;;;;;;2.40;2.17;;;;;;;;;;5071230;28;20173;-57
2023/07/16 04:02:14;;;;;;;3.60;3.20;;;;;;;;;;5071440;28;20169;-57
2023/07/16 04:04:40;;;;;;;3.70;2.57;;;;;;;;;;5070281;28;20251;-57
2023/07/16 04:07:06;;;;;;;3.63;3.30;;;;;;;;;;5053642;28;20289;-56
2023/07/16 04:09:32;;;;;;;2.53;2.20;;;;;;;;;;5071318;28;20228;-56
2023/07/16 04:11:58;;;;;;;3.23;2.30;;;;;;;;;;5071331;28;20161;-56
2023/07/16 04:14:24;;;;;;;4.83;2.93;;;;;;;;;;5071241;28;20157;-56
2023/07/16 04:16:50;;;;;;;2.30;2.10;;;;;;;;;;5071152;28;20173;-57
2023/07/16 04:19:18;;;;;;;3.13;2.00;;;;;;;;;;5071047;28;20171;-56
2023/07/16 04:21:44;;;;;;;2.77;2.33;;;;;;;;;;5070869;28;20611;-57
2023/07/16 04:24:10;;;;;;;3.80;2.73;;;;;;;;;;5070945;28;20188;-57
2023/07/16 04:26:36;;;;;;;4.00;2.40;;;;;;;;;;5071425;28;20527;-56
2023/07/16 04:29:03;;;;;;;5.90;2.17;;;;;;;;;;5070963;28;20189;-55
2023/07/16 04:31:29;;;;;;;3.77;2.43;;;;;;;;;;5070948;28;20625;-55
2023/07/16 04:33:55;;;;;;;2.83;2.63;;;;;;;;;;5070262;28;20172;-57
2023/07/16 04:36:21;;;;;;;2.63;2.23;;;;;;;;;;5070800;28;20361;-56
2023/07/16 04:38:47;;;;;;;2.53;2.30;;;;;;;;;;5052804;28;20273;-56
2023/07/16 04:41:13;;;;;;;6.07;4.03;;;;;;;;;;5070639;28;20171;-56
2023/07/16 04:43:39;;;;;;;2.90;2.40;;;;;;;;;;5070689;28;20644;-56
2023/07/16 04:46:06;;;;;;;3.70;2.93;;;;;;;;;;5070634;28;20251;-56
2023/07/16 04:48:32;;;;;;;3.20;2.50;;;;;;;;;;5069954;28;20545;-56
2023/07/16 04:50:59;;;;;;;4.00;2.67;;;;;;;;;;5070001;28;20170;-57
2023/07/16 04:53:25;;;;;;;5.50;2.90;;;;;;;;;;5070433;28;20154;-56
2023/07/16 04:55:52;;;;;;;4.90;2.70;;;;;;;;;;5070379;28;20174;-56
2023/07/16 04:58:18;;;;;;;6.33;2.30;;;;;;;;;;5070270;28;20671;-56
2023/07/16 05:00:44;;;;;;;5.73;3.17;;;;;;;;;;5070570;28;20175;-56
2023/07/16 05:03:11;;;;;;;3.87;2.40;;;;;;;;;;5069533;28;20190;-57
2023/07/16 05:05:37;;;;;;;4.63;2.87;;;;;;;;;;5069585;28;20209;-56
2023/07/16 05:08:03;;;;;;;4.67;2.63;;;;;;;;;;5069996;28;20167;-56
2023/07/16 05:10:29;;;;;;;4.23;2.60;;;;;;;;;;5070353;28;20166;-56
2023/07/16 05:12:55;;;;;;;4.10;2.83;;;;;;;;;;5070386;28;20614;-58
2023/07/16 05:15:23;;;;;;;3.03;2.73;;;;;;;;;;5069751;28;20158;-57
2023/07/16 05:17:49;;;;;;;8.13;3.13;;;;;;;;;;5070005;28;20167;-57
2023/07/16 05:20:16;;;;;;;3.07;2.60;;;;;;;;;;5068635;28;20239;-57
2023/07/16 05:22:43;;;;;;;4.50;2.73;;;;;;;;;;5052092;28;20174;-57
2023/07/16 05:25:10;;;;;;;5.00;3.07;;;;;;;;;;5069325;28;20162;-56
2023/07/16 05:27:36;;;;;;;3.93;3.37;;;;;;;;;;5069794;28;20164;-56
2023/07/16 05:30:03;;;;;;;5.37;2.80;;;;;;;;;;5051131;28;20209;-57
2023/07/16 05:32:30;;;;;;;5.17;2.70;;;;;;;;;;5069889;28;20200;-56
2023/07/16 05:34:56;;;;;;;3.27;2.70;;;;;;;;;;5068246;28;20530;-58
2023/07/16 05:37:22;;;;;;;4.90;2.90;;;;;;;;;;5051186;28;20252;-58
2023/07/16 05:39:49;;;;;;;8.90;3.10;;;;;;;;;;5051480;28;20164;-56
2023/07/16 05:42:15;;;;;;;3.43;2.67;;;;;;;;;;5069603;28;20424;-58
2023/07/16 05:44:42;;;;;;;3.07;2.77;;;;;;;;;;5069251;28;20179;-58
2023/07/16 05:47:08;;;;;;;3.57;2.93;;;;;;;;;;5069670;28;20157;-56
2023/07/16 05:49:35;;;;;;;3.90;3.10;;;;;;;;;;5068778;28;20203;-56
2023/07/16 05:52:01;;;;;;;4.33;3.17;;;;;;;;;;5068925;28;20199;-57
2023/07/16 05:54:28;;;;;;;4.60;3.35;;;;;;;;;;5069556;28;20249;-56
2023/07/16 05:56:55;;;;;;;3.83;3.40;;;;;;;;;;5069089;28;20517;-57
2023/07/16 05:59:21;;;;;;;5.43;3.40;;;;;;;;;;5069358;28;20702;-58
2023/07/16 06:01:48;;;;;;;6.37;3.60;;;;;;;;;;5069308;28;20168;-58
2023/07/16 06:04:14;;;;;;;7.00;3.47;;;;;;;;;;5068437;28;20196;-57
2023/07/16 06:06:41;;;;;;;5.00;3.13;;;;;;;;;;5068891;28;20790;-57
2023/07/16 06:09:07;;;;;;;4.47;3.37;;;;;;;;;;5069115;28;20213;-58
2023/07/16 06:11:33;;;;;;;4.50;3.10;;;;;;;;;;5069406;28;20158;-59
2023/07/16 06:13:59;;;;;;;4.30;2.90;;;;;;;;;;5069175;28;20165;-57
2023/07/16 06:16:26;;;;;;;4.03;3.10;;;;;;;;;;5069127;28;20165;-58
2023/07/16 06:18:54;;;;;;;4.80;3.47;;;;;;;;;;5068739;28;20197;-57
2023/07/16 06:21:20;;;;;;;3.60;2.93;;;;;;;;;;5068608;28;20180;-58
2023/07/16 06:23:46;;;;;;;4.93;3.30;;;;;;;;;;5050994;28;20667;-57
2023/07/16 06:26:13;;;;;;;3.97;3.50;;;;;;;;;;5068964;28;20161;-58
2023/07/16 06:28:39;;;;;;;4.73;3.60;;;;;;;;;;5068973;28;20679;-57
2023/07/16 06:31:05;;;;;;;4.17;3.60;;;;;;;;;;5069021;28;20214;-56
2023/07/16 06:33:31;;;;;;;4.63;4.03;;;;;;;;;;5068603;28;20184;-57
2023/07/16 06:35:58;;;;;;;4.53;3.70;;;;;;;;;;5050677;28;20165;-57
2023/07/16 06:38:24;;;;;;;5.87;3.97;;;;;;;;;;5068482;28;20165;-57
2023/07/16 06:40:50;;;;;;;4.90;3.80;;;;;;;;;;5069232;28;20459;-57
2023/07/16 06:43:17;;;;;;;4.73;3.70;;;;;;;;;;5068896;28;20753;-58
2023/07/16 06:45:43;;;;;;;4.87;3.27;;;;;;;;;;5068905;28;20622;-57
2023/07/16 06:48:10;;;;;;;6.70;3.90;;;;;;;;;;5071017;28;20296;-58
2023/07/16 06:50:36;;;;;;;5.97;3.97;;;;;;;;;;5072387;28;20177;-57
2023/07/16 06:53:02;;;;;;;5.13;3.90;;;;;;;;;;5072439;28;20692;-58
2023/07/16 06:55:28;;;;;;;3.93;3.50;;;;;;;;;;5072851;28;20189;-58
2023/07/16 06:57:54;;;;;;;5.43;4.00;;;;;;;;;;5072458;28;20224;-57
2023/07/16 07:00:21;;;;;;;4.90;3.97;;;;;;;;;;5072579;28;20169;-58
2023/07/16 07:02:47;;;;;;;4.20;3.70;;;;;;;;;;5072493;28;20584;-58
2023/07/16 07:05:13;;;;;;;5.57;4.30;;;;;;;;;;5071017;28;20220;-58
2023/07/16 07:07:39;;;;;;;5.53;4.50;;;;;;;;;;5072907;28;20169;-59
2023/07/16 07:10:06;;;;;;;5.23;3.93;;;;;;;;;;5072254;28;20200;-58
2023/07/16 07:12:37;;;;;;;5.57;4.10;;;;;;;;;;5072536;28;20168;-58
2023/07/16 07:15:03;;;;;;;5.77;4.50;;;;;;;;;;5072510;28;20244;-58
2023/07/16 07:17:29;;;;;;;5.67;4.50;;;;;;;;;;5072517;28;20502;-58
2023/07/16 07:19:56;;;;;;;5.47;4.87;;;;;;;;;;5071746;28;20541;-58
2023/07/16 07:22:22;;;;;;;5.63;4.60;;;;;;;;;;5072501;28;20171;-58
2023/07/16 07:24:49;;;;;;;5.43;4.47;;;;;;;;;;5054227;28;20623;-59
2023/07/16 07:27:15;;;;;;;8.30;5.37;;;;;;;;;;5072462;28;20175;-58
2023/07/16 07:29:41;;;;;;;5.93;4.40;;;;;;;;;;5072066;28;20192;-59
2023/07/16 07:32:07;;;;;;;6.83;4.73;;;;;;;;;;5072365;28;20938;-58
2023/07/16 07:34:34;;;;;;;5.73;4.37;;;;;;;;;;5053545;28;20158;-58
2023/07/16 07:37:00;;;;;;;6.60;4.43;;;;;;;;;;5071308;28;20167;-58
2023/07/16 07:39:27;;;;;;;5.27;4.37;;;;;;;;;;5072072;28;20178;-58
2023/07/16 07:41:53;;;;;;;9.30;4.67;;;;;;;;;;5072013;28;20232;-59
2023/07/16 07:44:19;;;;;;;5.90;5.20;;;;;;;;;;5072025;28;20622;-59
2023/07/16 07:46:45;;;;;;;8.55;4.55;;;;;;;;;;5071819;28;20176;-59
2023/07/16 07:49:11;;;;;;;5.97;5.00;;;;;;;;;;5070956;28;20205;-59
2023/07/16 07:51:38;;;;;;;8.27;4.80;;;;;;;;;;5071542;28;20173;-60
2023/07/16 07:54:04;;;;;;;5.67;5.13;;;;;;;;;;5072121;28;20173;-58
2023/07/16 07:56:30;;;;;;;8.23;4.60;;;;;;;;;;5071924;28;20639;-59
2023/07/16 07:58:57;;;;;;;6.70;4.97;;;;;;;;;;5070753;28;20255;-60
2023/07/16 08:01:23;;;;;;;9.17;4.67;;;;;;;;;;5071548;28;20180;-60
2023/07/16 08:03:49;;;;;;;5.97;4.50;;;;;;;;;;5071111;28;20663;-59
2023/07/16 08:06:16;;;;;;;6.93;4.77;;;;;;;;;;5070623;28;20185;-59
2023/07/16 08:08:45;;;;;;;6.57;4.97;;;;;;;;;;5071618;28;20675;-59
2023/07/16 08:11:12;;;;;;;7.53;4.83;;;;;;;;;;5071376;28;20175;-58
2023/07/16 08:13:39;;;;;;;7.00;4.70;;;;;;;;;;5071590;28;20220;-59
2023/07/16 08:16:05;;;;;;;6.50;5.30;;;;;;;;;;5070990;28;20437;-59
2023/07/16 08:18:31;;;;;;;8.13;5.77;;;;;;;;;;5070518;28;20405;-58
2023/07/16 08:20:57;;;;;;;8.53;4.80;;;;;;;;;;5071278;28;20164;-60
2023/07/16 08:23:23;;;;;;;6.27;4.50;;;;;;;;;;5053298;28;20665;-59
2023/07/16 08:25:52;;;;;;;12.30;5.40;;;;;;;;;;5071625;28;20169;-59
2023/07/16 08:28:19;;;;;;;6.97;4.93;;;;;;;;;;5070999;28;20660;-59
2023/07/16 08:30:48;;;;;;;6.17;5.20;;;;;;;;;;5071017;28;20174;-58
2023/07/16 08:33:14;;;;;;;8.60;4.90;;;;;;;;;;5070032;28;20167;-58
2023/07/16 08:35:41;;;;;;;8.07;4.83;;;;;;;;;;5070446;28;20266;-58
2023/07/16 08:38:10;;;;;;;7.83;5.60;;;;;;;;;;5070678;28;20174;-58
2023/07/16 08:40:37;;;;;;;7.10;5.20;;;;;;;;;;5071338;28;20162;-58
2023/07/16 08:43:03;;;;;;;6.67;4.63;;;;;;;;;;5071070;28;20174;-58
2023/07/16 08:45:30;;;;;;;7.43;4.83;;;;;;;;;;5070959;28;20252;-59
2023/07/16 08:47:57;;;;;;;5.17;4.63;;;;;;;;;;5070793;28;20159;-57
2023/07/16 08:50:23;;;;;;;8.00;5.10;;;;;;;;;;5070182;28;20211;-58
2023/07/16 08:52:49;;;;;;;5.10;4.30;;;;;;;;;;5070845;28;20168;-58
2023/07/16 08:55:16;;;;;;;7.07;4.90;;;;;;;;;;5070398;28;20168;-58
2023/07/16 08:57:43;;;;;;;6.57;4.90;;;;;;;;;;5070561;28;20233;-58
2023/07/16 09:00:10;;;;;;;4.80;4.30;;;;;;;;;;5070636;28;20177;-59
2023/07/16 09:02:36;;;;;;;5.33;4.83;;;;;;;;;;5070059;28;20234;-59
2023/07/16 09:05:03;;;;;;;5.30;4.80;;;;;;;;;;5068157;28;20209;-58
2023/07/16 09:07:29;;;;;;;7.83;4.53;;;;;;;;;;5051923;28;20184;-59
2023/07/16 09:09:58;;;;;;;4.97;4.47;;;;;;;;;;5051226;28;20208;-58
2023/07/16 09:12:24;;;;;;;5.37;4.47;;;;;;;;;;5070110;28;20184;-59
2023/07/16 09:14:50;;;;;;;8.17;5.33;;;;;;;;;;5070405;28;20663;-59
2023/07/16 09:17:26;;;;;;;7.03;4.53;;;;;;;;;;5070353;28;20195;-58
2023/07/16 09:19:52;;;;;;;10.53;4.60;;;;;;;;;;5068963;28;20165;-58
2023/07/16 09:22:19;;;;;;;4.90;3.90;;;;;;;;;;5070061;28;20211;-58
2023/07/16 09:24:47;;;;;;;6.93;4.93;;;;;;;;;;5070169;28;20252;-58
2023/07/16 09:27:13;;;;;;;5.23;4.27;;;;;;;;;;5069719;28;20263;-59
2023/07/16 09:29:39;;;;;;;4.70;3.93;;;;;;;;;;5070205;28;20204;-59
2023/07/16 09:32:06;;;;;;;4.20;3.80;;;;;;;;;;5051858;28;20515;-58
2023/07/16 09:34:32;;;;;;;5.63;4.97;;;;;;;;;;5051945;28;20200;-59
2023/07/16 09:36:59;;;;;;;5.43;4.83;;;;;;;;;;5069697;28;20160;-58
2023/07/16 09:39:26;;;;;;;4.60;3.70;;;;;;;;;;5069738;28;20184;-58
2023/07/16 09:41:52;;;;;;;6.63;4.83;;;;;;;;;;5070176;28;20249;-58
2023/07/16 09:44:19;;;;;;;5.40;4.50;;;;;;;;;;5070065;28;20176;-58
2023/07/16 09:46:45;;;;;;;7.35;4.20;;;;;;;;;;5069740;28;20157;-58
2023/07/16 09:49:11;;;;;;;5.23;4.70;;;;;;;;;;5069011;28;20663;-58
2023/07/16 09:51:38;;;;;;;5.37;4.27;;;;;;;;;;5069648;28;20169;-58
2023/07/16 09:54:05;;;;;;;5.53;4.97;;;;;;;;;;5069632;28;20181;-59
2023/07/16 09:56:37;;;;;;;4.90;4.33;;;;;;;;;;5069825;28;20165;-59
2023/07/16 09:59:06;;;;;;;5.67;5.17;;;;;;;;;;5069650;28;20197;-58
2023/07/16 10:01:32;;;;;;;7.87;4.70;;;;;;;;;;5069152;28;20164;-59
2023/07/16 10:03:59;;;;;;;5.30;4.23;;;;;;;;;;5068633;28;20566;-58
2023/07/16 10:06:25;;;;;;;6.07;4.37;;;;;;;;;;5069102;28;20256;-58
2023/07/16 10:08:51;;;;;;;5.07;4.50;;;;;;;;;;5069144;28;20292;-58
2023/07/16 10:11:17;;;;;;;4.63;3.90;;;;;;;;;;5069794;28;20209;-58
2023/07/16 10:13:44;;;;;;;6.87;4.40;;;;;;;;;;5069384;28;20168;-58
2023/07/16 10:16:21;;;;;;;5.30;4.20;;;;;;;;;;5069478;28;20617;-59
2023/07/16 10:18:54;;;;;;;4.67;4.17;;;;;;;;;;5068862;28;20211;-58
2023/07/16 10:21:24;;;;;;;5.03;4.37;;;;;;;;;;5069073;28;20628;-60
2023/07/16 10:23:58;;;;;;;6.00;4.85;;;;;;;;;;5073997;28;20952;-58
2023/07/16 10:26:28;;;;;;;6.57;4.33;;;;;;;;;;5073523;28;20198;-58
2023/07/16 10:28:54;;;;;;;5.23;4.50;;;;;;;;;;5072933;28;20197;-58
2023/07/16 10:31:25;;;;;;;5.23;4.43;;;;;;;;;;5054926;28;20180;-59
2023/07/16 10:34:01;;;;;;;8.30;4.80;;;;;;;;;;5072655;28;20259;-59
2023/07/16 10:36:27;;;;;;;5.20;4.30;;;;;;;;;;5072959;28;20608;-59
2023/07/16 10:38:53;;;;;;;6.75;4.40;;;;;;;;;;5073141;28;20177;-58
2023/07/16 10:41:20;;;;;;;7.00;4.50;;;;;;;;;;5073632;28;20492;-58
2023/07/16 10:43:46;;;;;;;5.10;4.50;;;;;;;;;;5073070;28;20164;-58
2023/07/16 10:46:12;;;;;;;7.73;4.47;;;;;;;;;;5073179;28;20161;-58
2023/07/16 10:48:38;;;;;;;5.10;4.40;;;;;;;;;;5072417;28;20199;-59
2023/07/16 10:51:04;;;;;;;7.07;4.43;;;;;;;;;;5072813;28;20165;-59
2023/07/16 10:53:30;;;;;;;5.03;3.83;;;;;;;;;;5072845;28;20176;-59
2023/07/16 10:55:59;;;;;;;5.00;3.93;;;;;;;;;;5073103;28;20183;-58
2023/07/16 10:58:26;;;;;;;5.60;4.03;;;;;;;;;;5072689;28;20775;-59
2023/07/16 11:00:52;;;;;;;7.20;4.37;;;;;;;;;;5072997;28;20624;-58
2023/07/16 11:03:18;;;;;;;6.37;4.43;;;;;;;;;;5072002;28;20611;-58
2023/07/16 11:05:48;;;;;;;5.33;4.27;;;;;;;;;;5057171;28;20205;-58
2023/07/16 11:08:24;;;;;;;4.97;4.17;;;;;;;;;;5052275;28;20188;-59
2023/07/16 11:11:00;;;;;;;4.37;3.90;;;;;;;;;;5052958;28;20154;-58
2023/07/16 11:13:30;;;;;;;5.80;3.80;;;;;;;;;;5052500;28;20157;-58
2023/07/16 11:15:57;;;;;;;5.37;4.17;;;;;;;;;;5052599;28;20243;-59
2023/07/16 11:18:27;;;;;;;6.83;4.03;;;;;;;;;;5051784;28;20729;-58
2023/07/16 11:20:54;;;;;;;5.37;4.03;;;;;;;;;;5052466;28;20659;-58
2023/07/16 11:23:20;;;;;;;4.83;3.97;;;;;;;;;;5052500;28;20392;-58
2023/07/16 11:25:46;;;;;;;5.03;4.17;;;;;;;;;;5052302;28;20551;-59
2023/07/16 11:28:12;;;;;;;5.80;4.57;;;;;;;;;;5051736;28;20637;-58
2023/07/16 11:30:38;;;;;;;6.90;4.17;;;;;;;;;;5052299;28;20169;-58
2023/07/16 11:33:10;;;;;;;5.03;4.00;;;;;;;;;;5050578;28;20190;-59
2023/07/16 11:35:37;;;;;;;7.83;4.70;;;;;;;;;;5051546;28;20166;-58
2023/07/16 11:38:05;;;;;;;4.17;3.70;;;;;;;;;;5051909;28;20166;-58
2023/07/16 11:40:34;;;;;;;8.03;4.63;;;;;;;;;;5052182;28;20190;-59
2023/07/16 11:43:09;;;;;;;5.63;4.27;;;;;;;;;;5051769;28;20157;-59
2023/07/16 11:45:36;;;;;;;5.90;4.40;;;;;;;;;;5051802;28;20179;-58
2023/07/16 11:48:03;;;;;;;4.00;3.57;;;;;;;;;;5051845;28;20236;-60
2023/07/16 11:50:29;;;;;;;4.23;3.83;;;;;;;;;;5051232;28;20184;-60
2023/07/16 11:52:57;;;;;;;5.90;4.50;;;;;;;;;;5051691;28;20175;-58
2023/07/16 11:55:24;;;;;;;5.80;4.00;;;;;;;;;;5051711;28;20238;-59
2023/07/16 11:57:50;;;;;;;4.70;4.23;;;;;;;;;;5051699;28;20217;-58
2023/07/16 12:00:17;;;;;;;6.93;4.23;;;;;;;;;;5051527;28;20188;-59
2023/07/16 12:02:50;;;;;;;4.47;4.05;;;;;;;;;;5050718;28;20457;-58
2023/07/16 12:05:17;;;;;;;4.53;4.13;;;;;;;;;;5061588;28;20740;-57
2023/07/16 12:07:43;;;;;;;4.97;4.20;;;;;;;;;;5071601;28;20192;-59
2023/07/16 12:10:09;;;;;;;5.77;3.90;;;;;;;;;;5071459;28;20225;-57
2023/07/16 12:12:39;;;;;;;6.37;3.57;;;;;;;;;;5071436;28;20537;-57
2023/07/16 12:15:06;;;;;;;4.03;3.47;;;;;;;;;;5070989;28;20183;-58
2023/07/16 12:17:33;;;;;;;3.93;3.43;;;;;;;;;;5071338;28;20179;-59
2023/07/16 12:19:59;;;;;;;4.20;3.77;;;;;;;;;;5070256;28;20883;-58
2023/07/16 12:22:25;;;;;;;7.17;4.10;;;;;;;;;;5071589;28;20167;-58
2023/07/16 12:24:51;;;;;;;5.40;3.70;;;;;;;;;;5071410;28;20554;-58
2023/07/16 12:27:18;;;;;;;6.83;4.10;;;;;;;;;;5071086;28;20239;-58
2023/07/16 12:29:44;;;;;;;6.90;4.57;;;;;;;;;;5070862;28;20203;-57
2023/07/16 12:32:11;;;;;;;4.30;3.87;;;;;;;;;;5070962;28;20174;-58
2023/07/16 12:34:37;;;;;;;5.03;4.00;;;;;;;;;;5070394;28;20196;-58
2023/07/16 12:37:04;;;;;;;5.17;3.50;;;;;;;;;;5052483;28;20637;-58
2023/07/16 12:39:30;;;;;;;4.03;3.43;;;;;;;;;;5070582;28;20217;-58
2023/07/16 12:41:56;;;;;;;5.80;4.00;;;;;;;;;;5070663;28;20177;-58
2023/07/16 12:44:23;;;;;;;5.53;4.03;;;;;;;;;;5070793;28;20157;-58
2023/07/16 12:46:49;;;;;;;4.40;4.00;;;;;;;;;;5071221;28;20625;-58
2023/07/16 12:49:16;;;;;;;5.60;3.93;;;;;;;;;;5070263;28;20196;-59
2023/07/16 12:51:43;;;;;;;5.23;4.03;;;;;;;;;;5070439;28;20185;-59
2023/07/16 12:54:09;;;;;;;4.37;3.93;;;;;;;;;;5070539;28;20166;-59
2023/07/16 12:56:35;;;;;;;4.10;3.67;;;;;;;;;;5070548;28;20300;-60
2023/07/16 12:59:01;;;;;;;5.30;4.30;;;;;;;;;;5070117;28;20238;-59
2023/07/16 13:01:28;;;;;;;5.70;3.67;;;;;;;;;;5070751;28;20165;-59
2023/07/16 13:03:54;;;;;;;4.63;3.77;;;;;;;;;;5069713;28;20248;-60
2023/07/16 13:06:21;;;;;;;5.70;4.50;;;;;;;;;;5069973;28;20184;-59
2023/07/16 13:08:48;;;;;;;4.80;3.80;;;;;;;;;;5070900;28;20192;-58
2023/07/16 13:11:14;;;;;;;4.47;4.07;;;;;;;;;;5070451;28;20177;-59
2023/07/16 13:13:43;;;;;;;4.57;4.07;;;;;;;;;;5070842;28;20164;-59
2023/07/16 13:16:10;;;;;;;6.20;4.10;;;;;;;;;;5070493;28;20168;-58
2023/07/16 13:18:36;;;;;;;6.63;3.80;;;;;;;;;;5069492;28;20187;-59
2023/07/16 13:21:03;;;;;;;6.30;3.80;;;;;;;;;;5069599;28;20316;-59
2023/07/16 13:23:29;;;;;;;6.23;4.03;;;;;;;;;;5069889;28;20227;-58
2023/07/16 13:25:56;;;;;;;4.30;3.87;;;;;;;;;;5070145;28;20162;-59
2023/07/16 13:28:23;;;;;;;5.17;3.73;;;;;;;;;;5070091;28;20171;-59
2023/07/16 13:30:50;;;;;;;5.17;3.73;;;;;;;;;;5070025;28;20202;-58
2023/07/16 13:33:17;;;;;;;5.20;4.70;;;;;;;;;;5069498;28;20570;-58
2023/07/16 13:35:43;;;;;;;5.83;3.80;;;;;;;;;;5069680;28;20287;-59
2023/07/16 13:38:09;;;;;;;3.93;3.27;;;;;;;;;;5069915;28;20254;-59
2023/07/16 13:40:36;;;;;;;3.90;3.60;;;;;;;;;;5069767;28;20239;-58
2023/07/16 13:43:03;;;;;;;5.60;4.53;;;;;;;;;;5069343;28;20171;-59
2023/07/16 13:45:29;;;;;;;6.40;4.13;;;;;;;;;;5069943;28;20532;-59
2023/07/16 13:47:56;;;;;;;4.30;3.90;;;;;;;;;;5069584;28;20158;-58
2023/07/16 13:50:22;;;;;;;3.93;3.50;;;;;;;;;;5068412;28;20734;-59
2023/07/16 13:52:48;;;;;;;4.67;4.10;;;;;;;;;;5069599;28;20202;-58
2023/07/16 13:55:14;;;;;;;4.20;3.67;;;;;;;;;;5069703;28;20249;-59
2023/07/16 13:57:42;;;;;;;5.50;3.93;;;;;;;;;;5068764;28;20229;-59
2023/07/16 14:00:09;;;;;;;6.53;4.73;;;;;;;;;;5069735;28;20565;-59
2023/07/16 14:02:37;;;;;;;5.87;3.67;;;;;;;;;;5069508;28;20217;-59
2023/07/16 14:05:04;;;;;;;3.60;3.10;;;;;;;;;;5050144;28;20339;-59
2023/07/16 14:07:30;;;;;;;5.97;4.00;;;;;;;;;;5069724;28;20179;-59
2023/07/16 14:09:56;;;;;;;4.63;3.47;;;;;;;;;;5069386;28;20550;-59
2023/07/16 14:12:23;;;;;;;4.00;3.50;;;;;;;;;;5069593;28;20157;-59
2023/07/16 14:14:49;;;;;;;4.10;3.40;;;;;;;;;;5051338;28;20177;-60
2023/07/16 14:17:16;;;;;;;7.83;4.20;;;;;;;;;;5069228;28;20184;-59
2023/07/16 14:19:42;;;;;;;4.47;3.53;;;;;;;;;;5068603;28;20663;-59
2023/07/16 14:22:11;;;;;;;4.33;3.93;;;;;;;;;;5069377;28;20162;-58
2023/07/16 14:24:37;;;;;;;3.80;3.50;;;;;;;;;;5069185;28;20157;-60
2023/07/16 14:27:06;;;;;;;4.00;3.63;;;;;;;;;;5069277;28;20182;-59
2023/07/16 14:29:33;;;;;;;3.77;3.40;;;;;;;;;;5069079;28;20209;-58
2023/07/16 14:31:59;;;;;;;3.87;3.50;;;;;;;;;;5068974;28;20196;-60
2023/07/16 14:34:28;;;;;;;3.70;3.40;;;;;;;;;;5068352;28;20877;-58
2023/07/16 14:36:54;;;;;;;3.70;3.40;;;;;;;;;;5050590;28;20168;-59
2023/07/16 14:39:21;;;;;;;3.40;3.20;;;;;;;;;;5069101;28;20158;-58
2023/07/16 14:41:47;;;;;;;4.97;3.50;;;;;;;;;;5069013;28;20215;-59